Time;durP1;ratioP1;P1;durP2;ratioP2;P2;SDS_P1;SDS_P2;PMS_P1;PMS_P2;Temp;Humidity;BMP_temperature;BMP_pressure;BME280_temperature;BME280_humidity;BME280_pressure;Samples;Min_cycle;Max_cycle;Signal;HPM_P1;HPM_P2
2022/07/07 00:02:24;;;;;;;;;;;16.40;99.90;;;;;;4968640;28;19925;-74
2022/07/07 00:04:49;;;;;;;;;;;16.50;99.90;;;;;;4963685;28;19937;-74
2022/07/07 00:07:15;;;;;;;;;;;16.60;99.90;;;;;;4963860;28;20003;-74
2022/07/07 00:09:41;;;;;;;;;;;16.50;99.90;;;;;;4963688;28;20395;-74
2022/07/07 00:12:06;;;;;;;;;;;16.60;99.90;;;;;;4965841;28;20327;-74
2022/07/07 00:14:32;;;;;;;;;;;16.50;99.90;;;;;;4964736;28;19947;-74
2022/07/07 00:16:58;;;;;;;;;;;16.60;99.90;;;;;;4963139;28;20875;-74
2022/07/07 00:19:24;;;;;;;;;;;16.60;99.90;;;;;;4965437;28;19918;-74
2022/07/07 00:21:50;;;;;;;;;;;16.60;99.90;;;;;;4977108;28;19941;-74
2022/07/07 00:24:16;;;;;;;;;;;16.60;99.90;;;;;;4966280;28;20385;-74
2022/07/07 00:26:41;;;;;;;;;;;16.60;99.90;;;;;;4964399;28;19921;-74
2022/07/07 00:29:07;;;;;;;;;;;16.70;99.90;;;;;;4967359;28;19929;-74
2022/07/07 00:31:33;;;;;;;;;;;16.60;99.90;;;;;;4967917;28;19962;-74
2022/07/07 00:33:58;;;;;;;;;;;16.60;99.90;;;;;;4965427;28;20333;-74
2022/07/07 00:36:24;;;;;;;;;;;16.60;99.90;;;;;;4965896;28;20415;-74
2022/07/07 00:38:49;;;;;;;;;;;16.60;99.90;;;;;;4966434;28;20396;-74
2022/07/07 00:41:15;;;;;;;;;;;16.60;99.90;;;;;;4963853;28;19926;-74
2022/07/07 00:43:42;;;;;;;;;;;16.60;99.90;;;;;;4965915;28;20558;-74
2022/07/07 00:46:08;;;;;;;;;;;16.60;99.90;;;;;;4965866;28;20342;-74
2022/07/07 00:48:35;;;;;;;;;;;16.70;99.90;;;;;;4965114;28;19922;-74
2022/07/07 00:51:01;;;;;;;;;;;16.70;99.90;;;;;;4965972;28;19918;-74
2022/07/07 00:53:27;;;;;;;;;;;16.60;99.90;;;;;;4963055;28;20372;-74
2022/07/07 00:55:52;;;;;;;;;;;16.60;99.90;;;;;;4965315;28;19922;-74
2022/07/07 00:58:18;;;;;;;;;;;16.60;99.90;;;;;;4964849;28;19950;-74
2022/07/07 01:00:43;;;;;;;;;;;16.60;99.90;;;;;;4963898;28;19925;-74
2022/07/07 01:03:09;;;;;;;;;;;16.60;99.90;;;;;;4966551;28;19930;-74
2022/07/07 01:05:36;;;;;;;;;;;16.60;99.90;;;;;;4965350;28;20628;-74
2022/07/07 01:08:03;;;;;;;;;;;16.60;99.90;;;;;;4966536;28;20360;-74
2022/07/07 01:10:29;;;;;;;;;;;16.70;99.90;;;;;;4965873;28;19965;-75
2022/07/07 01:12:55;;;;;;;;;;;16.70;99.90;;;;;;4963601;28;19922;-74
2022/07/07 01:15:20;;;;;;;;;;;16.60;99.90;;;;;;4964464;28;19922;-74
2022/07/07 01:17:46;;;;;;;;;;;16.60;99.90;;;;;;4965866;28;19918;-75
2022/07/07 01:20:13;;;;;;;;;;;16.70;99.90;;;;;;4950128;28;20321;-75
2022/07/07 01:22:45;;;;;;;;;;;16.70;99.90;;;;;;4962964;28;21433;-75
2022/07/07 01:25:10;;;;;;;;;;;16.60;99.90;;;;;;4981471;28;20000;-74
2022/07/07 01:27:36;;;;;;;;;;;16.70;99.90;;;;;;4964686;28;20060;-74
2022/07/07 01:30:02;;;;;;;;;;;16.70;99.90;;;;;;4971889;28;19964;-74
2022/07/07 01:32:28;;;;;;;;;;;16.60;99.90;;;;;;4970757;28;20289;-74
2022/07/07 01:34:53;;;;;;;;;;;16.70;99.90;;;;;;4971916;28;19918;-74
2022/07/07 01:37:20;;;;;;;;;;;16.60;99.90;;;;;;4970692;28;19950;-74
2022/07/07 01:39:46;;;;;;;;;;;16.60;99.90;;;;;;4971436;28;19926;-74
2022/07/07 01:42:13;;;;;;;;;;;16.70;99.90;;;;;;4971615;28;19926;-74
2022/07/07 01:44:40;;;;;;;;;;;16.60;99.90;;;;;;4970256;28;19926;-74
2022/07/07 01:47:06;;;;;;;;;;;16.60;99.90;;;;;;4970401;28;20054;-74
2022/07/07 01:49:32;;;;;;;;;;;16.60;99.90;;;;;;4970692;28;19984;-74
2022/07/07 01:51:59;;;;;;;;;;;16.60;99.90;;;;;;4967684;28;19923;-74
2022/07/07 01:54:25;;;;;;;;;;;16.60;99.90;;;;;;4968992;28;19930;-74
2022/07/07 01:56:51;;;;;;;;;;;16.50;99.90;;;;;;4970117;28;19918;-74
2022/07/07 01:59:17;;;;;;;;;;;16.50;99.90;;;;;;4971508;28;19984;-74
2022/07/07 02:01:43;;;;;;;;;;;16.50;99.90;;;;;;4971660;28;19924;-74
2022/07/07 02:04:08;;;;;;;;;;;16.50;99.90;;;;;;4973144;28;19926;-74
2022/07/07 02:06:34;;;;;;;;;;;16.40;99.90;;;;;;4970436;28;20509;-74
2022/07/07 02:09:00;;;;;;;;;;;16.40;99.90;;;;;;4971618;28;20388;-76
2022/07/07 02:11:26;;;;;;;;;;;16.40;99.90;;;;;;4969872;28;20442;-75
2022/07/07 02:13:52;;;;;;;;;;;16.40;99.90;;;;;;4969109;28;19940;-75
2022/07/07 02:16:18;;;;;;;;;;;16.40;99.90;;;;;;4972919;28;20574;-74
2022/07/07 02:18:45;;;;;;;;;;;16.30;99.90;;;;;;4971524;28;19953;-75
2022/07/07 02:21:12;;;;;;;;;;;16.40;99.90;;;;;;4972226;28;19918;-74
2022/07/07 02:23:39;;;;;;;;;;;16.40;99.90;;;;;;4960109;28;19930;-74
2022/07/07 02:26:04;;;;;;;;;;;16.30;99.90;;;;;;4970928;28;19945;-74
2022/07/07 02:28:30;;;;;;;;;;;16.30;99.90;;;;;;4973187;28;20393;-74
2022/07/07 02:30:56;;;;;;;;;;;16.30;99.90;;;;;;4977407;28;20016;-75
2022/07/07 02:33:22;;;;;;;;;;;16.30;99.90;;;;;;4977984;28;19980;-74
2022/07/07 02:35:48;;;;;;;;;;;16.30;99.90;;;;;;4977099;28;20555;-75
2022/07/07 02:38:14;;;;;;;;;;;16.20;99.90;;;;;;4970772;28;20349;-74
2022/07/07 02:40:40;;;;;;;;;;;16.30;99.90;;;;;;4968245;28;19980;-74
2022/07/07 02:43:05;;;;;;;;;;;16.30;99.90;;;;;;4965853;28;20338;-73
2022/07/07 02:45:31;;;;;;;;;;;16.30;99.90;;;;;;4966276;28;19941;-73
2022/07/07 02:47:56;;;;;;;;;;;16.30;99.90;;;;;;4968379;28;20344;-73
2022/07/07 02:50:22;;;;;;;;;;;16.30;99.90;;;;;;4967832;28;20300;-72
2022/07/07 02:52:47;;;;;;;;;;;16.20;99.90;;;;;;4969029;28;20391;-73
2022/07/07 02:55:13;;;;;;;;;;;16.20;99.90;;;;;;4950309;28;19918;-73
2022/07/07 02:57:39;;;;;;;;;;;16.20;99.90;;;;;;4967731;28;20310;-74
2022/07/07 03:00:06;;;;;;;;;;;16.20;99.90;;;;;;4968181;28;19996;-73
2022/07/07 03:02:32;;;;;;;;;;;16.20;99.90;;;;;;4971641;28;19918;-73
2022/07/07 03:04:57;;;;;;;;;;;16.20;99.90;;;;;;4968782;28;20312;-73
2022/07/07 03:07:23;;;;;;;;;;;16.20;99.90;;;;;;4966490;28;20296;-73
2022/07/07 03:09:48;;;;;;;;;;;16.20;99.90;;;;;;4967317;28;20336;-73
2022/07/07 03:12:14;;;;;;;;;;;16.30;99.90;;;;;;4967632;28;20352;-73
2022/07/07 03:14:39;;;;;;;;;;;16.30;99.90;;;;;;4966550;28;20304;-73
2022/07/07 03:17:05;;;;;;;;;;;16.20;99.90;;;;;;4967420;28;19924;-73
2022/07/07 03:19:30;;;;;;;;;;;16.20;99.90;;;;;;4967492;28;20295;-73
2022/07/07 03:21:56;;;;;;;;;;;16.30;99.90;;;;;;4965972;28;20362;-73
2022/07/07 03:24:21;;;;;;;;;;;16.20;99.90;;;;;;4965803;28;19926;-73
2022/07/07 03:26:47;;;;;;;;;;;16.20;99.90;;;;;;4968229;28;19929;-73
2022/07/07 03:29:12;;;;;;;;;;;16.30;99.90;;;;;;4967727;28;20288;-73
2022/07/07 03:31:38;;;;;;;;;;;16.20;99.90;;;;;;4968423;28;20012;-73
2022/07/07 03:34:03;;;;;;;;;;;16.20;99.90;;;;;;4966256;28;20512;-74
2022/07/07 03:36:29;;;;;;;;;;;16.20;99.90;;;;;;4966891;28;20505;-73
2022/07/07 03:38:55;;;;;;;;;;;16.20;99.90;;;;;;4967101;28;20333;-74
2022/07/07 03:41:20;;;;;;;;;;;16.20;99.90;;;;;;4965118;28;19918;-73
2022/07/07 03:43:46;;;;;;;;;;;16.20;99.90;;;;;;4964729;28;20355;-74
2022/07/07 03:46:12;;;;;;;;;;;16.20;99.90;;;;;;4968883;28;20336;-73
2022/07/07 03:48:37;;;;;;;;;;;16.30;99.90;;;;;;4965078;28;20308;-73
2022/07/07 03:51:03;;;;;;;;;;;16.20;99.90;;;;;;4966479;28;19924;-74
2022/07/07 03:53:28;;;;;;;;;;;16.20;99.90;;;;;;4981688;28;19926;-74
2022/07/07 03:55:54;;;;;;;;;;;16.20;99.90;;;;;;4965068;28;20344;-75
2022/07/07 03:58:19;;;;;;;;;;;16.20;99.90;;;;;;4963674;28;20353;-74
2022/07/07 04:00:45;;;;;;;;;;;16.20;99.90;;;;;;4965421;28;20758;-74
2022/07/07 04:03:10;;;;;;;;;;;16.20;99.90;;;;;;4967687;28;19918;-73
2022/07/07 04:05:36;;;;;;;;;;;16.10;99.90;;;;;;4973330;28;19918;-74
2022/07/07 04:08:01;;;;;;;;;;;16.10;99.90;;;;;;4970780;28;19918;-73
2022/07/07 04:10:27;;;;;;;;;;;16.10;99.90;;;;;;4956311;28;19922;-73
2022/07/07 04:12:54;;;;;;;;;;;16.10;99.90;;;;;;4973706;28;19922;-73
2022/07/07 04:15:20;;;;;;;;;;;16.10;99.90;;;;;;4970314;28;19918;-73
2022/07/07 04:17:45;;;;;;;;;;;16.10;99.90;;;;;;4972375;28;19917;-73
2022/07/07 04:20:11;;;;;;;;;;;16.10;99.90;;;;;;4967793;28;19988;-73
2022/07/07 04:22:37;;;;;;;;;;;16.20;99.90;;;;;;4970096;28;20104;-74
2022/07/07 04:25:03;;;;;;;;;;;16.20;99.90;;;;;;4965679;28;19929;-74
2022/07/07 04:27:29;;;;;;;;;;;16.20;99.90;;;;;;4967235;28;19925;-74
2022/07/07 04:29:54;;;;;;;;;;;16.10;99.90;;;;;;4965934;28;20013;-74
2022/07/07 04:32:20;;;;;;;;;;;16.10;99.90;;;;;;4968179;28;19918;-75
2022/07/07 04:34:45;;;;;;;;;;;16.20;99.90;;;;;;4968257;28;19976;-74
2022/07/07 04:37:11;;;;;;;;;;;16.20;99.90;;;;;;4958241;28;20006;-75
2022/07/07 04:39:37;;;;;;;;;;;16.20;99.90;;;;;;4968310;28;19948;-74
2022/07/07 04:42:03;;;;;;;;;;;16.10;99.90;;;;;;4955180;28;20372;-74
2022/07/07 04:44:28;;;;;;;;;;;16.00;99.90;;;;;;4969903;28;19922;-74
2022/07/07 04:46:54;;;;;;;;;;;16.00;99.90;;;;;;4963980;28;19918;-74
2022/07/07 04:49:19;;;;;;;;;;;15.90;99.90;;;;;;4976250;28;19922;-75
2022/07/07 04:51:45;;;;;;;;;;;15.90;99.90;;;;;;4972470;28;20013;-75
2022/07/07 04:54:11;;;;;;;;;;;15.90;99.90;;;;;;4968753;28;19918;-75
2022/07/07 04:56:37;;;;;;;;;;;15.90;99.90;;;;;;4969378;28;19980;-75
2022/07/07 04:59:02;;;;;;;;;;;15.90;99.90;;;;;;4966011;28;19918;-75
2022/07/07 05:01:28;;;;;;;;;;;15.90;99.90;;;;;;4967443;28;19918;-75
2022/07/07 05:03:53;;;;;;;;;;;15.90;99.90;;;;;;4966402;28;19922;-74
2022/07/07 05:06:19;;;;;;;;;;;15.90;99.90;;;;;;4963431;28;20008;-74
2022/07/07 05:08:44;;;;;;;;;;;15.90;99.90;;;;;;4951553;28;20017;-73
2022/07/07 05:11:10;;;;;;;;;;;16.00;99.90;;;;;;4965497;28;20389;-73
2022/07/07 05:13:35;;;;;;;;;;;15.90;99.90;;;;;;4969481;28;19925;-73
2022/07/07 05:16:02;;;;;;;;;;;15.90;99.90;;;;;;4970132;28;19918;-73
2022/07/07 05:18:29;;;;;;;;;;;15.90;99.90;;;;;;4964585;28;19925;-73
2022/07/07 05:20:55;;;;;;;;;;;15.90;99.90;;;;;;4964059;28;19932;-74
2022/07/07 05:23:21;;;;;;;;;;;15.90;99.90;;;;;;4962056;28;19922;-73
2022/07/07 05:25:47;;;;;;;;;;;15.90;99.90;;;;;;4966272;28;19922;-73
2022/07/07 05:28:12;;;;;;;;;;;15.90;99.90;;;;;;4968769;28;19926;-73
2022/07/07 05:30:38;;;;;;;;;;;16.00;99.90;;;;;;4967807;28;19966;-73
2022/07/07 05:33:07;;;;;;;;;;;16.00;99.90;;;;;;4970297;28;19922;-73
2022/07/07 05:35:33;;;;;;;;;;;16.10;99.90;;;;;;4978583;28;19926;-73
2022/07/07 05:37:59;;;;;;;;;;;16.10;99.90;;;;;;4968210;28;19925;-73
2022/07/07 05:40:24;;;;;;;;;;;16.10;99.90;;;;;;4967547;28;19918;-74
2022/07/07 05:42:50;;;;;;;;;;;16.10;99.90;;;;;;4966722;28;19965;-74
2022/07/07 05:45:15;;;;;;;;;;;16.20;99.90;;;;;;4974553;28;19922;-74
2022/07/07 05:47:41;;;;;;;;;;;16.20;99.90;;;;;;4972336;28;20371;-74
2022/07/07 05:50:07;;;;;;;;;;;16.20;99.90;;;;;;4973800;28;19922;-74
2022/07/07 05:52:33;;;;;;;;;;;16.20;99.90;;;;;;4954174;28;19918;-74
2022/07/07 05:54:58;;;;;;;;;;;16.30;99.90;;;;;;4968602;28;19972;-74
2022/07/07 05:57:24;;;;;;;;;;;16.40;99.90;;;;;;4968415;28;19968;-74
2022/07/07 05:59:50;;;;;;;;;;;16.40;99.90;;;;;;4967261;28;20557;-74
2022/07/07 06:02:15;;;;;;;;;;;16.60;99.90;;;;;;4973586;28;19918;-74
2022/07/07 06:04:41;;;;;;;;;;;16.60;99.90;;;;;;4953516;28;19922;-74
2022/07/07 06:07:07;;;;;;;;;;;16.60;99.90;;;;;;4962901;28;19929;-75
2022/07/07 06:09:32;;;;;;;;;;;16.70;99.90;;;;;;4953952;28;19918;-74
2022/07/07 06:11:58;;;;;;;;;;;16.70;99.90;;;;;;4966693;28;19925;-74
2022/07/07 06:14:23;;;;;;;;;;;16.60;99.90;;;;;;4969652;28;19925;-74
2022/07/07 06:16:49;;;;;;;;;;;16.70;99.90;;;;;;4972951;28;19918;-74
2022/07/07 06:19:15;;;;;;;;;;;16.70;99.90;;;;;;4975466;28;20005;-74
2022/07/07 06:21:41;;;;;;;;;;;16.70;99.90;;;;;;4976632;28;19923;-74
2022/07/07 06:24:07;;;;;;;;;;;16.70;99.90;;;;;;4985899;28;19922;-74
2022/07/07 06:26:33;;;;;;;;;;;16.80;99.90;;;;;;4968863;28;20327;-74
2022/07/07 06:28:59;;;;;;;;;;;16.80;99.90;;;;;;4974509;28;19918;-74
2022/07/07 06:31:25;;;;;;;;;;;16.90;99.90;;;;;;4984584;28;20450;-74
2022/07/07 06:33:50;;;;;;;;;;;16.90;99.90;;;;;;4983029;28;20012;-74
2022/07/07 06:36:16;;;;;;;;;;;16.90;99.90;;;;;;4959064;28;19918;-74
2022/07/07 06:38:42;;;;;;;;;;;17.00;99.90;;;;;;4973616;28;19926;-74
2022/07/07 06:41:07;;;;;;;;;;;17.10;99.90;;;;;;4965769;28;19939;-74
2022/07/07 06:43:33;;;;;;;;;;;17.20;99.90;;;;;;4973896;28;19922;-74
2022/07/07 06:45:58;;;;;;;;;;;17.30;99.90;;;;;;4973120;28;19925;-74
2022/07/07 06:48:24;;;;;;;;;;;17.40;99.90;;;;;;4969653;28;19980;-74
2022/07/07 06:50:49;;;;;;;;;;;17.40;99.90;;;;;;4969601;28;19988;-74
2022/07/07 06:53:15;;;;;;;;;;;17.50;99.90;;;;;;4971488;28;19918;-74
2022/07/07 06:55:41;;;;;;;;;;;17.40;99.90;;;;;;4972790;28;19918;-74
2022/07/07 06:58:07;;;;;;;;;;;17.40;99.90;;;;;;4969763;28;20005;-74
2022/07/07 07:00:33;;;;;;;;;;;17.40;99.90;;;;;;4971389;28;19918;-74
2022/07/07 07:02:58;;;;;;;;;;;17.40;99.90;;;;;;4977577;28;19925;-74
2022/07/07 07:05:24;;;;;;;;;;;17.20;99.90;;;;;;4971550;28;19926;-74
2022/07/07 07:07:50;;;;;;;;;;;17.20;99.90;;;;;;4969144;28;20396;-75
2022/07/07 07:10:16;;;;;;;;;;;17.20;99.90;;;;;;4970955;28;20013;-74
2022/07/07 07:12:41;;;;;;;;;;;17.10;99.90;;;;;;4968384;28;19917;-73
2022/07/07 07:15:07;;;;;;;;;;;17.10;99.90;;;;;;4968423;28;19921;-74
2022/07/07 07:17:33;;;;;;;;;;;17.10;99.90;;;;;;4966975;28;19919;-74
2022/07/07 07:19:58;;;;;;;;;;;17.00;99.90;;;;;;4971823;28;19918;-74
2022/07/07 07:22:25;;;;;;;;;;;17.00;99.90;;;;;;4977222;28;20304;-73
2022/07/07 07:24:51;;;;;;;;;;;16.90;99.90;;;;;;4968893;28;19953;-74
2022/07/07 07:27:17;;;;;;;;;;;16.80;99.90;;;;;;4954115;28;20384;-74
2022/07/07 07:29:42;;;;;;;;;;;16.80;99.90;;;;;;4980624;28;20384;-74
2022/07/07 07:32:08;;;;;;;;;;;16.80;99.90;;;;;;4970596;28;20302;-74
2022/07/07 07:34:34;;;;;;;;;;;16.70;99.90;;;;;;4969787;28;20446;-75
2022/07/07 07:37:00;;;;;;;;;;;16.70;99.90;;;;;;4975147;28;20309;-75
2022/07/07 07:39:26;;;;;;;;;;;16.80;99.90;;;;;;4970223;28;19918;-74
2022/07/07 07:41:51;;;;;;;;;;;16.90;99.90;;;;;;4973959;28;20304;-74
2022/07/07 07:45:09;;;;;;;;;;;17.00;99.90;;;;;;4972237;28;19930;-74
2022/07/07 07:47:03;;;;;;;;;;;17.30;99.90;;;;;;4969979;28;19918;-73
2022/07/07 07:49:28;;;;;;;;;;;17.40;99.90;;;;;;4976421;28;20296;-73
2022/07/07 07:51:54;;;;;;;;;;;17.70;99.90;;;;;;4968202;28;20456;-73
2022/07/07 07:54:19;;;;;;;;;;;17.90;99.90;;;;;;4971659;28;20277;-72
2022/07/07 07:56:45;;;;;;;;;;;18.00;99.90;;;;;;4973458;28;20349;-73
2022/07/07 07:59:10;;;;;;;;;;;17.90;99.90;;;;;;4966694;28;19922;-73
2022/07/07 08:01:36;;;;;;;;;;;18.00;99.90;;;;;;4968471;28;20300;-73
2022/07/07 08:04:02;;;;;;;;;;;18.00;99.90;;;;;;4970668;28;19949;-73
2022/07/07 08:06:28;;;;;;;;;;;18.00;99.90;;;;;;4970786;28;19918;-73
2022/07/07 08:08:53;;;;;;;;;;;18.20;99.90;;;;;;4965664;28;19922;-73
2022/07/07 08:11:19;;;;;;;;;;;18.40;99.90;;;;;;4969755;28;19980;-73
2022/07/07 08:13:44;;;;;;;;;;;18.60;99.90;;;;;;4977565;28;20379;-74
2022/07/07 08:16:10;;;;;;;;;;;18.70;99.90;;;;;;4968216;28;20343;-73
2022/07/07 08:18:35;;;;;;;;;;;18.70;99.90;;;;;;4965028;28;20408;-74
2022/07/07 08:21:01;;;;;;;;;;;18.60;99.90;;;;;;4969908;28;19926;-74
2022/07/07 08:23:26;;;;;;;;;;;18.60;99.90;;;;;;4972533;28;20387;-74
2022/07/07 08:25:52;;;;;;;;;;;18.60;99.90;;;;;;4970646;28;19929;-74
2022/07/07 08:28:17;;;;;;;;;;;18.50;99.90;;;;;;4968764;28;20556;-74
2022/07/07 08:30:43;;;;;;;;;;;18.50;99.90;;;;;;4967930;28;19918;-74
2022/07/07 08:33:09;;;;;;;;;;;18.60;99.90;;;;;;4970851;28;20442;-74
2022/07/07 08:35:34;;;;;;;;;;;18.80;99.90;;;;;;4965947;28;20412;-74
2022/07/07 08:38:00;;;;;;;;;;;18.90;99.90;;;;;;4969863;28;20673;-74
2022/07/07 08:40:25;;;;;;;;;;;19.00;99.90;;;;;;4955523;28;19926;-74
2022/07/07 08:42:51;;;;;;;;;;;19.00;99.90;;;;;;4974635;28;20339;-74
2022/07/07 08:45:17;;;;;;;;;;;19.00;99.90;;;;;;4968001;28;20487;-73
2022/07/07 08:47:42;;;;;;;;;;;18.90;99.90;;;;;;4967894;28;20443;-74
2022/07/07 08:50:08;;;;;;;;;;;18.70;99.90;;;;;;4966615;28;20379;-74
2022/07/07 08:52:34;;;;;;;;;;;18.70;99.90;;;;;;4962841;28;20395;-73
2022/07/07 08:55:00;;;;;;;;;;;18.60;99.90;;;;;;4951993;28;20385;-73
2022/07/07 08:57:26;;;;;;;;;;;18.50;99.90;;;;;;4971505;28;19945;-72
2022/07/07 08:59:56;;;;;;;;;;;18.40;99.90;;;;;;4954634;28;20389;-73
2022/07/07 09:02:22;;;;;;;;;;;18.60;99.90;;;;;;4974301;28;20289;-73
2022/07/07 09:04:48;;;;;;;;;;;18.70;99.90;;;;;;4968187;28;19969;-74
2022/07/07 09:07:13;;;;;;;;;;;18.80;99.90;;;;;;4970440;28;20392;-74
2022/07/07 09:09:40;;;;;;;;;;;18.90;99.90;;;;;;4966478;28;19983;-74
2022/07/07 09:12:07;;;;;;;;;;;19.10;99.90;;;;;;4965715;28;19918;-74
2022/07/07 09:14:37;;;;;;;;;;;19.40;99.90;;;;;;4968213;28;19941;-74
2022/07/07 09:17:03;;;;;;;;;;;19.60;99.90;;;;;;4965494;28;19918;-74
2022/07/07 09:19:29;;;;;;;;;;;19.80;99.90;;;;;;4969374;28;19968;-74
2022/07/07 09:21:54;;;;;;;;;;;19.80;99.90;;;;;;4967948;28;20372;-74
2022/07/07 09:24:20;;;;;;;;;;;19.70;99.90;;;;;;4968949;28;19930;-74
2022/07/07 09:26:46;;;;;;;;;;;19.60;99.90;;;;;;4974602;28;20401;-74
2022/07/07 09:29:13;;;;;;;;;;;19.50;99.90;;;;;;4972319;28;19918;-74
2022/07/07 09:31:51;;;;;;;;;;;19.40;99.90;;;;;;4956050;28;19933;-74
2022/07/07 09:34:17;;;;;;;;;;;19.30;99.90;;;;;;4949754;29;19925;-75
2022/07/07 09:39:47;;;;;;;;;;;19.20;99.90;;;;;;4959301;28;19929;-74
2022/07/07 09:42:21;;;;;;;;;;;19.20;99.90;;;;;;4974097;28;20393;-74
2022/07/07 09:44:52;;;;;;;;;;;19.30;99.90;;;;;;4963072;28;20021;-74
2022/07/07 09:47:18;;;;;;;;;;;19.30;99.90;;;;;;4967686;28;19929;-74
2022/07/07 09:49:56;;;;;;;;;;;19.30;99.90;;;;;;4955450;28;19996;-74
2022/07/07 09:52:21;;;;;;;;;;;19.20;99.90;;;;;;4977773;28;19918;-74
2022/07/07 09:54:48;;;;;;;;;;;19.20;99.90;;;;;;4975029;28;19926;-75
2022/07/07 09:57:14;;;;;;;;;;;19.10;99.90;;;;;;4973982;28;19918;-75
2022/07/07 09:59:41;;;;;;;;;;;19.10;99.90;;;;;;4973558;28;19926;-75
2022/07/07 10:02:12;;;;;;;;;;;19.20;99.90;;;;;;4988566;28;19925;-75
2022/07/07 10:04:38;;;;;;;;;;;19.20;99.90;;;;;;4972522;28;20499;-74
2022/07/07 10:07:03;;;;;;;;;;;19.20;99.90;;;;;;4975814;28;20343;-74
2022/07/07 10:09:29;;;;;;;;;;;19.00;99.90;;;;;;4976279;28;20001;-74
2022/07/07 10:11:55;;;;;;;;;;;19.00;99.90;;;;;;4975790;28;20308;-73
2022/07/07 10:14:27;;;;;;;;;;;19.00;99.90;;;;;;4977172;28;20418;-73
2022/07/07 10:16:54;;;;;;;;;;;18.90;99.90;;;;;;4976592;28;19918;-74
2022/07/07 10:19:23;;;;;;;;;;;19.00;99.90;;;;;;4969401;28;19956;-74
2022/07/07 10:21:50;;;;;;;;;;;19.20;99.90;;;;;;4973312;28;19940;-74
2022/07/07 10:24:17;;;;;;;;;;;19.40;99.90;;;;;;4966586;28;19926;-74
2022/07/07 10:26:45;;;;;;;;;;;19.60;99.90;;;;;;4975881;28;19918;-73
2022/07/07 10:29:11;;;;;;;;;;;19.60;99.90;;;;;;4973342;28;19922;-74
2022/07/07 10:31:37;;;;;;;;;;;19.50;99.90;;;;;;4972458;28;19922;-74
2022/07/07 10:34:08;;;;;;;;;;;19.30;99.90;;;;;;4968968;28;19918;-74
2022/07/07 10:36:46;;;;;;;;;;;19.10;99.90;;;;;;4974697;28;19918;-74
2022/07/07 10:39:12;;;;;;;;;;;18.90;99.90;;;;;;4973693;28;19926;-74
2022/07/07 10:41:39;;;;;;;;;;;18.80;99.90;;;;;;4956720;28;19933;-74
2022/07/07 10:44:05;;;;;;;;;;;18.80;99.90;;;;;;4969075;28;19922;-74
2022/07/07 10:46:33;;;;;;;;;;;18.80;99.90;;;;;;4969020;28;19918;-74
2022/07/07 10:49:07;;;;;;;;;;;19.00;99.90;;;;;;4970357;28;19964;-73
2022/07/07 10:51:49;;;;;;;;;;;19.00;99.90;;;;;;4974178;28;19930;-74
2022/07/07 10:54:16;;;;;;;;;;;19.00;99.90;;;;;;4971778;28;19953;-73
2022/07/07 10:56:51;;;;;;;;;;;18.90;99.90;;;;;;4972389;28;19925;-74
2022/07/07 10:59:20;;;;;;;;;;;18.90;99.90;;;;;;4968902;28;19968;-74
2022/07/07 11:02:01;;;;;;;;;;;18.90;99.90;;;;;;4970448;28;19921;-74
2022/07/07 11:04:42;;;;;;;;;;;18.80;99.90;;;;;;4974264;28;19922;-73
2022/07/07 11:07:12;;;;;;;;;;;18.60;99.90;;;;;;4971585;28;20041;-73
2022/07/07 11:09:58;;;;;;;;;;;18.30;99.90;;;;;;4972896;28;19918;-73
2022/07/07 11:12:42;;;;;;;;;;;18.30;99.90;;;;;;4972445;28;19926;-73
2022/07/07 11:15:14;;;;;;;;;;;18.10;99.90;;;;;;4975036;28;19973;-73
2022/07/07 11:17:39;;;;;;;;;;;18.00;99.90;;;;;;4993770;28;19941;-73
2022/07/07 11:20:08;;;;;;;;;;;17.80;99.90;;;;;;4972433;28;20340;-73
2022/07/07 11:22:44;;;;;;;;;;;17.60;99.90;;;;;;4972417;28;19917;-73
2022/07/07 11:25:10;;;;;;;;;;;17.50;99.90;;;;;;4976377;28;19929;-73
2022/07/07 11:27:36;;;;;;;;;;;17.50;99.90;;;;;;4974431;28;19926;-73
2022/07/07 11:30:03;;;;;;;;;;;17.60;99.90;;;;;;4974572;28;19918;-73
2022/07/07 11:32:39;;;;;;;;;;;17.90;99.90;;;;;;4973008;28;20304;-73
2022/07/07 11:35:05;;;;;;;;;;;18.00;99.90;;;;;;4973318;28;19984;-73
2022/07/07 11:37:31;;;;;;;;;;;18.20;99.90;;;;;;4970165;28;19922;-74
2022/07/07 11:39:57;;;;;;;;;;;18.30;99.90;;;;;;4971942;28;19922;-74
2022/07/07 11:42:23;;;;;;;;;;;18.50;99.90;;;;;;4958876;28;20004;-73
2022/07/07 11:44:49;;;;;;;;;;;18.70;99.90;;;;;;4979245;28;19929;-73
2022/07/07 11:47:15;;;;;;;;;;;18.90;99.90;;;;;;4973333;28;19918;-74
2022/07/07 11:49:41;;;;;;;;;;;19.00;99.90;;;;;;4974866;28;19918;-74
2022/07/07 11:52:11;;;;;;;;;;;18.80;99.90;;;;;;4972801;28;20462;-74
2022/07/07 11:54:44;;;;;;;;;;;18.70;99.90;;;;;;4974967;28;19926;-74
2022/07/07 11:57:09;;;;;;;;;;;18.60;99.90;;;;;;4972636;28;19925;-73
2022/07/07 11:59:35;;;;;;;;;;;18.40;99.90;;;;;;4971158;28;20377;-74
2022/07/07 12:02:00;;;;;;;;;;;18.40;99.90;;;;;;4970661;28;20364;-74
2022/07/07 12:04:26;;;;;;;;;;;18.50;99.90;;;;;;4973198;28;20356;-73
2022/07/07 12:06:52;;;;;;;;;;;18.50;99.90;;;;;;4968311;28;20289;-73
2022/07/07 12:09:17;;;;;;;;;;;18.50;99.90;;;;;;4970667;28;20380;-74
2022/07/07 12:11:43;;;;;;;;;;;18.50;99.90;;;;;;4979396;28;19918;-74
2022/07/07 12:14:10;;;;;;;;;;;18.50;99.90;;;;;;4972780;28;20295;-75
2022/07/07 12:16:42;;;;;;;;;;;18.50;99.90;;;;;;4969608;28;20354;-74
2022/07/07 12:19:09;;;;;;;;;;;18.50;99.90;;;;;;4971642;28;19988;-73
2022/07/07 12:21:40;;;;;;;;;;;18.60;99.90;;;;;;4972268;28;19922;-74
2022/07/07 12:24:06;;;;;;;;;;;18.50;99.90;;;;;;4960488;28;20345;-73
2022/07/07 12:26:41;;;;;;;;;;;18.70;99.90;;;;;;4968725;28;19918;-74
2022/07/07 12:29:10;;;;;;;;;;;18.90;99.90;;;;;;4951419;28;19925;-73
2022/07/07 12:31:36;;;;;;;;;;;19.20;99.90;;;;;;4963696;28;19918;-74
2022/07/07 12:34:12;;;;;;;;;;;19.30;99.90;;;;;;4965981;28;20399;-74
2022/07/07 12:36:38;;;;;;;;;;;19.40;99.90;;;;;;4964735;28;20293;-74
2022/07/07 12:39:04;;;;;;;;;;;19.40;99.90;;;;;;4966441;28;19918;-74
2022/07/07 12:41:34;;;;;;;;;;;19.20;99.90;;;;;;4970652;28;20312;-74
2022/07/07 12:44:16;;;;;;;;;;;19.00;99.90;;;;;;4963158;28;19922;-73
2022/07/07 12:46:42;;;;;;;;;;;19.00;99.90;;;;;;4970483;28;20365;-74
2022/07/07 12:49:08;;;;;;;;;;;19.00;99.90;;;;;;4975161;28;20289;-73
2022/07/07 12:51:34;;;;;;;;;;;19.00;99.90;;;;;;4959368;28;19925;-74
2022/07/07 12:54:00;;;;;;;;;;;18.80;99.90;;;;;;4963076;28;20316;-74
2022/07/07 12:56:33;;;;;;;;;;;18.80;99.90;;;;;;4960628;28;19918;-74
2022/07/07 12:58:58;;;;;;;;;;;18.70;99.90;;;;;;4948378;28;19973;-74
2022/07/07 13:01:25;;;;;;;;;;;18.70;99.90;;;;;;4962995;28;20617;-74
2022/07/07 13:03:53;;;;;;;;;;;18.90;99.90;;;;;;4966430;28;20492;-74
2022/07/07 13:06:19;;;;;;;;;;;18.90;99.90;;;;;;4963278;28;20000;-74
2022/07/07 13:08:46;;;;;;;;;;;18.80;99.90;;;;;;4947590;28;20440;-73
2022/07/07 13:11:12;;;;;;;;;;;18.80;99.90;;;;;;4962444;28;20613;-73
2022/07/07 13:13:38;;;;;;;;;;;18.60;99.90;;;;;;4968760;28;19926;-74
2022/07/07 13:16:04;;;;;;;;;;;18.60;99.90;;;;;;4969207;28;19918;-74
2022/07/07 13:18:30;;;;;;;;;;;18.60;99.90;;;;;;4947146;28;20419;-74
2022/07/07 13:21:00;;;;;;;;;;;18.60;99.90;;;;;;4962637;28;20538;-73
2022/07/07 13:23:26;;;;;;;;;;;18.80;99.90;;;;;;4963571;28;20258;-73
2022/07/07 13:25:51;;;;;;;;;;;18.90;99.90;;;;;;4963772;28;19965;-73
2022/07/07 13:28:17;;;;;;;;;;;19.00;99.90;;;;;;4964524;28;19969;-73
2022/07/07 13:30:43;;;;;;;;;;;19.00;99.90;;;;;;4947668;28;19926;-73
2022/07/07 13:33:08;;;;;;;;;;;19.10;99.90;;;;;;4948155;28;19922;-73
2022/07/07 13:35:34;;;;;;;;;;;19.20;99.90;;;;;;4965424;28;19965;-73
2022/07/07 13:38:00;;;;;;;;;;;19.20;99.90;;;;;;4970015;28;19981;-73
2022/07/07 13:40:26;;;;;;;;;;;19.20;99.90;;;;;;4966102;28;19918;-72
2022/07/07 13:42:52;;;;;;;;;;;19.10;99.90;;;;;;4961714;28;20755;-73
2022/07/07 13:45:17;;;;;;;;;;;19.10;99.90;;;;;;4948336;28;19933;-73
2022/07/07 13:47:43;;;;;;;;;;;19.10;99.90;;;;;;4961930;28;19968;-73
2022/07/07 13:50:08;;;;;;;;;;;19.00;99.90;;;;;;4964782;28;19918;-74
2022/07/07 13:52:34;;;;;;;;;;;19.00;99.90;;;;;;4961317;28;20368;-73
2022/07/07 13:54:59;;;;;;;;;;;19.10;99.90;;;;;;4963496;28;19946;-73
2022/07/07 13:57:31;;;;;;;;;;;19.00;99.90;;;;;;4964338;28;20008;-73
2022/07/07 13:59:57;;;;;;;;;;;19.00;99.90;;;;;;4965007;28;20021;-73
2022/07/07 14:02:24;;;;;;;;;;;18.90;99.90;;;;;;4968262;28;20406;-74
2022/07/07 14:04:50;;;;;;;;;;;18.80;99.90;;;;;;4962593;28;20345;-74
2022/07/07 14:07:15;;;;;;;;;;;18.70;99.90;;;;;;4962063;28;19926;-73
2022/07/07 14:09:41;;;;;;;;;;;18.40;99.90;;;;;;4964499;28;19925;-74
2022/07/07 14:12:06;;;;;;;;;;;18.30;99.90;;;;;;4962848;28;19926;-73
2022/07/07 14:14:32;;;;;;;;;;;18.30;99.90;;;;;;4964542;28;19918;-73
2022/07/07 14:16:58;;;;;;;;;;;18.40;99.90;;;;;;4966797;28;19961;-73